sensor_id;sensor_type;location;lat;lon;timestamp;P1;durP1;ratioP1;P2;durP2;ratioP2
82030;SDS011;71592;52.178;4.512;2023-08-12T00:01:45;5.55;;;2.80;;
82030;SDS011;71592;52.178;4.512;2023-08-12T00:04:10;6.40;;;2.85;;
82030;SDS011;71592;52.178;4.512;2023-08-12T00:06:39;5.75;;;2.60;;
82030;SDS011;71592;52.178;4.512;2023-08-12T00:09:05;5.45;;;2.72;;
82030;SDS011;71592;52.178;4.512;2023-08-12T00:11:30;8.05;;;3.15;;
82030;SDS011;71592;52.178;4.512;2023-08-12T00:13:55;7.40;;;3.17;;
82030;SDS011;71592;52.178;4.512;2023-08-12T00:16:20;7.80;;;3.55;;
82030;SDS011;71592;52.178;4.512;2023-08-12T00:18:46;7.75;;;3.30;;
82030;SDS011;71592;52.178;4.512;2023-08-12T00:21:11;6.07;;;3.30;;
82030;SDS011;71592;52.178;4.512;2023-08-12T00:23:37;7.03;;;3.40;;
82030;SDS011;71592;52.178;4.512;2023-08-12T00:26:05;5.57;;;3.20;;
82030;SDS011;71592;52.178;4.512;2023-08-12T00:28:30;7.45;;;3.33;;
82030;SDS011;71592;52.178;4.512;2023-08-12T00:30:56;8.30;;;2.95;;
82030;SDS011;71592;52.178;4.512;2023-08-12T00:33:21;5.38;;;2.78;;
82030;SDS011;71592;52.178;4.512;2023-08-12T00:35:46;6.05;;;3.25;;
82030;SDS011;71592;52.178;4.512;2023-08-12T00:38:15;9.98;;;3.47;;
82030;SDS011;71592;52.178;4.512;2023-08-12T00:40:40;9.85;;;3.70;;
82030;SDS011;71592;52.178;4.512;2023-08-12T00:43:06;6.90;;;3.38;;
82030;SDS011;71592;52.178;4.512;2023-08-12T00:45:31;5.68;;;3.22;;
82030;SDS011;71592;52.178;4.512;2023-08-12T00:47:57;5.18;;;3.03;;
82030;SDS011;71592;52.178;4.512;2023-08-12T00:50:22;5.80;;;2.90;;
82030;SDS011;71592;52.178;4.512;2023-08-12T00:52:48;6.38;;;3.35;;
82030;SDS011;71592;52.178;4.512;2023-08-12T00:55:14;5.82;;;3.10;;
82030;SDS011;71592;52.178;4.512;2023-08-12T00:57:40;6.05;;;2.83;;
82030;SDS011;71592;52.178;4.512;2023-08-12T01:00:05;6.95;;;3.13;;
82030;SDS011;71592;52.178;4.512;2023-08-12T01:02:31;6.97;;;3.60;;
82030;SDS011;71592;52.178;4.512;2023-08-12T01:04:57;8.48;;;3.33;;
82030;SDS011;71592;52.178;4.512;2023-08-12T01:07:23;8.15;;;3.22;;
82030;SDS011;71592;52.178;4.512;2023-08-12T01:09:48;5.60;;;3.47;;
82030;SDS011;71592;52.178;4.512;2023-08-12T01:12:16;5.97;;;3.45;;
82030;SDS011;71592;52.178;4.512;2023-08-12T01:14:56;5.90;;;3.53;;
82030;SDS011;71592;52.178;4.512;2023-08-12T01:17:23;6.40;;;3.30;;
82030;SDS011;71592;52.178;4.512;2023-08-12T01:19:51;7.88;;;3.33;;
82030;SDS011;71592;52.178;4.512;2023-08-12T01:22:16;5.07;;;3.33;;
82030;SDS011;71592;52.178;4.512;2023-08-12T01:24:43;9.27;;;3.95;;
82030;SDS011;71592;52.178;4.512;2023-08-12T01:27:09;7.97;;;3.25;;
82030;SDS011;71592;52.178;4.512;2023-08-12T01:29:36;9.35;;;3.72;;
82030;SDS011;71592;52.178;4.512;2023-08-12T01:32:09;6.30;;;3.40;;
82030;SDS011;71592;52.178;4.512;2023-08-12T01:34:44;5.70;;;3.33;;
82030;SDS011;71592;52.178;4.512;2023-08-12T01:37:11;10.02;;;4.05;;
82030;SDS011;71592;52.178;4.512;2023-08-12T01:39:39;7.90;;;4.03;;
82030;SDS011;71592;52.178;4.512;2023-08-12T01:42:04;8.63;;;4.03;;
82030;SDS011;71592;52.178;4.512;2023-08-12T01:44:30;8.68;;;4.20;;
82030;SDS011;71592;52.178;4.512;2023-08-12T01:46:55;7.20;;;3.87;;
82030;SDS011;71592;52.178;4.512;2023-08-12T01:49:20;6.57;;;3.70;;
82030;SDS011;71592;52.178;4.512;2023-08-12T01:51:48;7.30;;;3.47;;
82030;SDS011;71592;52.178;4.512;2023-08-12T01:54:13;7.23;;;3.87;;
82030;SDS011;71592;52.178;4.512;2023-08-12T01:56:38;7.95;;;3.65;;
82030;SDS011;71592;52.178;4.512;2023-08-12T01:59:04;7.32;;;3.55;;
82030;SDS011;71592;52.178;4.512;2023-08-12T02:01:29;7.97;;;3.90;;
82030;SDS011;71592;52.178;4.512;2023-08-12T02:03:54;6.10;;;3.20;;
82030;SDS011;71592;52.178;4.512;2023-08-12T02:06:19;7.23;;;3.87;;
82030;SDS011;71592;52.178;4.512;2023-08-12T02:08:45;7.28;;;3.47;;
82030;SDS011;71592;52.178;4.512;2023-08-12T02:11:10;7.27;;;3.90;;
82030;SDS011;71592;52.178;4.512;2023-08-12T02:13:35;6.90;;;4.05;;
82030;SDS011;71592;52.178;4.512;2023-08-12T02:16:01;8.80;;;4.67;;
82030;SDS011;71592;52.178;4.512;2023-08-12T02:18:26;7.38;;;4.15;;
82030;SDS011;71592;52.178;4.512;2023-08-12T02:20:51;8.07;;;4.37;;
82030;SDS011;71592;52.178;4.512;2023-08-12T02:23:17;9.83;;;4.83;;
82030;SDS011;71592;52.178;4.512;2023-08-12T02:25:45;8.05;;;4.40;;
82030;SDS011;71592;52.178;4.512;2023-08-12T02:28:12;8.00;;;4.72;;
82030;SDS011;71592;52.178;4.512;2023-08-12T02:30:37;13.15;;;4.95;;
82030;SDS011;71592;52.178;4.512;2023-08-12T02:33:03;12.35;;;5.10;;
82030;SDS011;71592;52.178;4.512;2023-08-12T02:35:28;10.25;;;4.63;;
82030;SDS011;71592;52.178;4.512;2023-08-12T02:37:53;7.33;;;4.77;;
82030;SDS011;71592;52.178;4.512;2023-08-12T02:40:18;9.98;;;4.38;;
82030;SDS011;71592;52.178;4.512;2023-08-12T02:42:44;8.27;;;5.00;;
82030;SDS011;71592;52.178;4.512;2023-08-12T02:45:09;8.63;;;5.20;;
82030;SDS011;71592;52.178;4.512;2023-08-12T02:47:35;9.10;;;5.60;;
82030;SDS011;71592;52.178;4.512;2023-08-12T02:50:00;11.10;;;6.10;;
82030;SDS011;71592;52.178;4.512;2023-08-12T02:52:25;11.73;;;5.73;;
82030;SDS011;71592;52.178;4.512;2023-08-12T02:54:50;12.17;;;5.80;;
82030;SDS011;71592;52.178;4.512;2023-08-12T02:57:16;13.47;;;6.20;;
82030;SDS011;71592;52.178;4.512;2023-08-12T02:59:41;9.25;;;5.82;;
82030;SDS011;71592;52.178;4.512;2023-08-12T03:02:06;12.30;;;5.93;;
82030;SDS011;71592;52.178;4.512;2023-08-12T03:04:35;9.68;;;5.38;;
82030;SDS011;71592;52.178;4.512;2023-08-12T03:07:00;11.43;;;6.72;;
82030;SDS011;71592;52.178;4.512;2023-08-12T03:09:25;11.87;;;5.93;;
82030;SDS011;71592;52.178;4.512;2023-08-12T03:11:51;10.63;;;6.60;;
82030;SDS011;71592;52.178;4.512;2023-08-12T03:14:16;11.77;;;6.83;;
82030;SDS011;71592;52.178;4.512;2023-08-12T03:16:41;9.70;;;5.90;;
82030;SDS011;71592;52.178;4.512;2023-08-12T03:19:06;11.60;;;5.80;;
82030;SDS011;71592;52.178;4.512;2023-08-12T03:21:31;11.93;;;6.30;;
82030;SDS011;71592;52.178;4.512;2023-08-12T03:24:00;11.30;;;6.25;;
82030;SDS011;71592;52.178;4.512;2023-08-12T03:26:25;11.27;;;6.63;;
82030;SDS011;71592;52.178;4.512;2023-08-12T03:28:51;11.15;;;6.90;;
82030;SDS011;71592;52.178;4.512;2023-08-12T03:31:16;10.90;;;6.03;;
82030;SDS011;71592;52.178;4.512;2023-08-12T03:33:41;10.73;;;6.43;;
82030;SDS011;71592;52.178;4.512;2023-08-12T03:36:06;11.75;;;6.65;;
82030;SDS011;71592;52.178;4.512;2023-08-12T03:38:32;14.20;;;6.82;;
82030;SDS011;71592;52.178;4.512;2023-08-12T03:40:57;12.38;;;7.10;;
82030;SDS011;71592;52.178;4.512;2023-08-12T03:43:22;13.23;;;7.73;;
82030;SDS011;71592;52.178;4.512;2023-08-12T03:45:48;13.87;;;7.33;;
82030;SDS011;71592;52.178;4.512;2023-08-12T03:48:13;11.23;;;6.87;;
82030;SDS011;71592;52.178;4.512;2023-08-12T03:50:38;12.57;;;7.90;;
82030;SDS011;71592;52.178;4.512;2023-08-12T03:53:04;13.27;;;7.50;;
82030;SDS011;71592;52.178;4.512;2023-08-12T03:55:32;13.93;;;7.00;;
82030;SDS011;71592;52.178;4.512;2023-08-12T03:58:01;11.50;;;7.05;;
82030;SDS011;71592;52.178;4.512;2023-08-12T04:00:27;13.48;;;7.32;;
82030;SDS011;71592;52.178;4.512;2023-08-12T04:02:52;12.20;;;7.35;;
82030;SDS011;71592;52.178;4.512;2023-08-12T04:05:18;15.18;;;7.00;;
82030;SDS011;71592;52.178;4.512;2023-08-12T04:07:43;11.93;;;7.23;;
82030;SDS011;71592;52.178;4.512;2023-08-12T04:10:08;11.23;;;7.77;;
82030;SDS011;71592;52.178;4.512;2023-08-12T04:12:34;15.15;;;7.95;;
82030;SDS011;71592;52.178;4.512;2023-08-12T04:14:59;14.05;;;7.82;;
82030;SDS011;71592;52.178;4.512;2023-08-12T04:17:27;10.93;;;7.35;;
82030;SDS011;71592;52.178;4.512;2023-08-12T04:19:52;14.27;;;7.27;;
82030;SDS011;71592;52.178;4.512;2023-08-12T04:22:17;11.65;;;7.43;;
82030;SDS011;71592;52.178;4.512;2023-08-12T04:24:43;11.93;;;7.07;;
82030;SDS011;71592;52.178;4.512;2023-08-12T04:27:08;13.07;;;7.83;;
82030;SDS011;71592;52.178;4.512;2023-08-12T04:29:34;10.50;;;7.13;;
82030;SDS011;71592;52.178;4.512;2023-08-12T04:31:59;13.80;;;7.38;;
82030;SDS011;71592;52.178;4.512;2023-08-12T04:34:25;12.43;;;7.55;;
82030;SDS011;71592;52.178;4.512;2023-08-12T04:36:50;10.20;;;6.93;;
82030;SDS011;71592;52.178;4.512;2023-08-12T04:39:15;9.67;;;6.73;;
82030;SDS011;71592;52.178;4.512;2023-08-12T04:41:40;14.33;;;7.23;;
82030;SDS011;71592;52.178;4.512;2023-08-12T04:44:06;11.23;;;7.03;;
82030;SDS011;71592;52.178;4.512;2023-08-12T04:46:31;13.15;;;7.10;;
82030;SDS011;71592;52.178;4.512;2023-08-12T04:48:57;12.38;;;7.40;;
82030;SDS011;71592;52.178;4.512;2023-08-12T04:51:22;11.25;;;6.53;;
82030;SDS011;71592;52.178;4.512;2023-08-12T04:53:47;13.73;;;6.97;;
82030;SDS011;71592;52.178;4.512;2023-08-12T04:56:13;11.38;;;6.15;;
82030;SDS011;71592;52.178;4.512;2023-08-12T04:58:38;12.50;;;7.20;;
82030;SDS011;71592;52.178;4.512;2023-08-12T05:01:03;12.13;;;6.93;;
82030;SDS011;71592;52.178;4.512;2023-08-12T05:03:29;9.40;;;6.40;;
82030;SDS011;71592;52.178;4.512;2023-08-12T05:05:54;12.10;;;7.32;;
82030;SDS011;71592;52.178;4.512;2023-08-12T05:08:19;11.50;;;7.10;;
82030;SDS011;71592;52.178;4.512;2023-08-12T05:10:48;12.40;;;6.97;;
82030;SDS011;71592;52.178;4.512;2023-08-12T05:13:14;12.45;;;7.20;;
82030;SDS011;71592;52.178;4.512;2023-08-12T05:15:39;13.75;;;7.63;;
82030;SDS011;71592;52.178;4.512;2023-08-12T05:18:04;12.88;;;7.47;;
82030;SDS011;71592;52.178;4.512;2023-08-12T05:20:30;13.02;;;7.07;;
82030;SDS011;71592;52.178;4.512;2023-08-12T05:22:55;13.47;;;7.67;;
82030;SDS011;71592;52.178;4.512;2023-08-12T05:25:20;12.17;;;7.67;;
82030;SDS011;71592;52.178;4.512;2023-08-12T05:27:45;13.80;;;7.57;;
82030;SDS011;71592;52.178;4.512;2023-08-12T05:30:11;11.63;;;7.57;;
82030;SDS011;71592;52.178;4.512;2023-08-12T05:32:37;12.65;;;7.93;;
82030;SDS011;71592;52.178;4.512;2023-08-12T05:35:02;12.55;;;7.63;;
82030;SDS011;71592;52.178;4.512;2023-08-12T05:37:27;12.48;;;7.97;;
82030;SDS011;71592;52.178;4.512;2023-08-12T05:39:53;11.47;;;6.87;;
82030;SDS011;71592;52.178;4.512;2023-08-12T05:42:18;11.57;;;7.63;;
82030;SDS011;71592;52.178;4.512;2023-08-12T05:44:43;13.00;;;7.57;;
82030;SDS011;71592;52.178;4.512;2023-08-12T05:47:09;11.47;;;7.77;;
82030;SDS011;71592;52.178;4.512;2023-08-12T05:49:34;12.80;;;7.40;;
82030;SDS011;71592;52.178;4.512;2023-08-12T05:51:59;12.00;;;7.80;;
82030;SDS011;71592;52.178;4.512;2023-08-12T05:54:24;13.70;;;8.43;;
82030;SDS011;71592;52.178;4.512;2023-08-12T05:56:49;14.70;;;9.03;;
82030;SDS011;71592;52.178;4.512;2023-08-12T05:59:15;14.73;;;8.73;;
82030;SDS011;71592;52.178;4.512;2023-08-12T06:01:40;15.18;;;8.93;;
82030;SDS011;71592;52.178;4.512;2023-08-12T06:04:05;15.77;;;9.77;;
82030;SDS011;71592;52.178;4.512;2023-08-12T06:06:31;12.67;;;8.23;;
82030;SDS011;71592;52.178;4.512;2023-08-12T06:08:56;17.40;;;9.07;;
82030;SDS011;71592;52.178;4.512;2023-08-12T06:11:21;14.47;;;9.37;;
82030;SDS011;71592;52.178;4.512;2023-08-12T06:13:46;16.13;;;10.17;;
82030;SDS011;71592;52.178;4.512;2023-08-12T06:16:12;17.75;;;9.73;;
82030;SDS011;71592;52.178;4.512;2023-08-12T06:18:38;15.30;;;9.47;;
82030;SDS011;71592;52.178;4.512;2023-08-12T06:21:03;16.58;;;9.43;;
82030;SDS011;71592;52.178;4.512;2023-08-12T06:23:28;15.23;;;9.83;;
82030;SDS011;71592;52.178;4.512;2023-08-12T06:25:55;15.25;;;9.38;;
82030;SDS011;71592;52.178;4.512;2023-08-12T06:28:20;13.47;;;9.10;;
82030;SDS011;71592;52.178;4.512;2023-08-12T06:30:45;14.40;;;9.27;;
82030;SDS011;71592;52.178;4.512;2023-08-12T06:33:12;14.40;;;9.95;;
82030;SDS011;71592;52.178;4.512;2023-08-12T06:35:38;15.88;;;10.15;;
82030;SDS011;71592;52.178;4.512;2023-08-12T06:38:04;13.48;;;9.25;;
82030;SDS011;71592;52.178;4.512;2023-08-12T06:40:30;13.70;;;9.07;;
82030;SDS011;71592;52.178;4.512;2023-08-12T06:42:55;12.23;;;8.57;;
82030;SDS011;71592;52.178;4.512;2023-08-12T06:45:21;13.03;;;8.67;;
82030;SDS011;71592;52.178;4.512;2023-08-12T06:47:46;11.10;;;7.47;;
82030;SDS011;71592;52.178;4.512;2023-08-12T06:50:11;11.30;;;8.03;;
82030;SDS011;71592;52.178;4.512;2023-08-12T06:52:36;9.67;;;6.93;;
82030;SDS011;71592;52.178;4.512;2023-08-12T06:55:02;9.03;;;6.90;;
82030;SDS011;71592;52.178;4.512;2023-08-12T06:57:27;10.75;;;6.75;;
82030;SDS011;71592;52.178;4.512;2023-08-12T06:59:52;7.93;;;5.20;;
82030;SDS011;71592;52.178;4.512;2023-08-12T07:02:18;8.00;;;4.70;;
82030;SDS011;71592;52.178;4.512;2023-08-12T07:04:43;6.63;;;3.73;;
82030;SDS011;71592;52.178;4.512;2023-08-12T07:07:08;6.43;;;3.38;;
82030;SDS011;71592;52.178;4.512;2023-08-12T07:09:34;5.95;;;3.55;;
82030;SDS011;71592;52.178;4.512;2023-08-12T07:11:59;5.60;;;3.33;;
82030;SDS011;71592;52.178;4.512;2023-08-12T07:14:25;7.43;;;3.22;;
82030;SDS011;71592;52.178;4.512;2023-08-12T07:16:51;6.38;;;2.97;;
82030;SDS011;71592;52.178;4.512;2023-08-12T07:19:16;4.90;;;2.17;;
82030;SDS011;71592;52.178;4.512;2023-08-12T07:21:42;6.13;;;1.90;;
82030;SDS011;71592;52.178;4.512;2023-08-12T07:24:07;6.43;;;1.95;;
82030;SDS011;71592;52.178;4.512;2023-08-12T07:26:32;6.18;;;2.10;;
82030;SDS011;71592;52.178;4.512;2023-08-12T07:28:58;5.97;;;1.90;;
82030;SDS011;71592;52.178;4.512;2023-08-12T07:31:23;5.50;;;2.20;;
82030;SDS011;71592;52.178;4.512;2023-08-12T07:33:48;5.60;;;2.13;;
82030;SDS011;71592;52.178;4.512;2023-08-12T07:36:14;5.53;;;1.85;;
82030;SDS011;71592;52.178;4.512;2023-08-12T07:38:39;4.85;;;1.75;;
82030;SDS011;71592;52.178;4.512;2023-08-12T07:41:05;3.30;;;1.90;;
82030;SDS011;71592;52.178;4.512;2023-08-12T07:43:30;3.00;;;1.92;;
82030;SDS011;71592;52.178;4.512;2023-08-12T07:45:56;5.27;;;2.30;;
82030;SDS011;71592;52.178;4.512;2023-08-12T07:48:21;6.47;;;2.07;;
82030;SDS011;71592;52.178;4.512;2023-08-12T07:50:46;5.15;;;2.35;;
82030;SDS011;71592;52.178;4.512;2023-08-12T07:53:15;6.63;;;2.30;;
82030;SDS011;71592;52.178;4.512;2023-08-12T07:55:41;4.55;;;1.70;;
82030;SDS011;71592;52.178;4.512;2023-08-12T07:58:06;4.40;;;2.38;;
82030;SDS011;71592;52.178;4.512;2023-08-12T08:00:32;3.37;;;1.73;;
82030;SDS011;71592;52.178;4.512;2023-08-12T08:02:57;5.40;;;1.80;;
82030;SDS011;71592;52.178;4.512;2023-08-12T08:05:23;4.88;;;1.63;;
82030;SDS011;71592;52.178;4.512;2023-08-12T08:07:48;4.23;;;1.80;;
82030;SDS011;71592;52.178;4.512;2023-08-12T08:10:16;5.30;;;1.80;;
82030;SDS011;71592;52.178;4.512;2023-08-12T08:12:44;6.53;;;2.15;;
82030;SDS011;71592;52.178;4.512;2023-08-12T08:15:10;6.20;;;2.63;;
82030;SDS011;71592;52.178;4.512;2023-08-12T08:17:35;7.07;;;2.10;;
82030;SDS011;71592;52.178;4.512;2023-08-12T08:20:01;5.00;;;2.03;;
82030;SDS011;71592;52.178;4.512;2023-08-12T08:22:26;6.20;;;2.67;;
82030;SDS011;71592;52.178;4.512;2023-08-12T08:24:51;4.33;;;2.00;;
82030;SDS011;71592;52.178;4.512;2023-08-12T08:27:16;6.60;;;1.80;;
82030;SDS011;71592;52.178;4.512;2023-08-12T08:29:42;6.25;;;1.70;;
82030;SDS011;71592;52.178;4.512;2023-08-12T08:32:07;5.30;;;2.00;;
82030;SDS011;71592;52.178;4.512;2023-08-12T08:34:33;5.97;;;2.08;;
82030;SDS011;71592;52.178;4.512;2023-08-12T08:36:59;6.28;;;1.80;;
82030;SDS011;71592;52.178;4.512;2023-08-12T08:39:24;8.68;;;2.03;;
82030;SDS011;71592;52.178;4.512;2023-08-12T08:41:50;4.32;;;2.08;;
82030;SDS011;71592;52.178;4.512;2023-08-12T08:44:18;4.43;;;2.00;;
82030;SDS011;71592;52.178;4.512;2023-08-12T08:46:46;6.82;;;2.00;;
82030;SDS011;71592;52.178;4.512;2023-08-12T08:49:13;5.82;;;2.03;;
82030;SDS011;71592;52.178;4.512;2023-08-12T08:51:40;5.38;;;1.90;;
82030;SDS011;71592;52.178;4.512;2023-08-12T08:54:06;6.20;;;2.15;;
82030;SDS011;71592;52.178;4.512;2023-08-12T08:56:32;7.82;;;2.15;;
82030;SDS011;71592;52.178;4.512;2023-08-12T08:58:58;3.72;;;1.95;;
82030;SDS011;71592;52.178;4.512;2023-08-12T09:01:23;8.35;;;2.33;;
82030;SDS011;71592;52.178;4.512;2023-08-12T09:03:50;6.97;;;1.95;;
82030;SDS011;71592;52.178;4.512;2023-08-12T09:06:16;7.03;;;2.20;;
82030;SDS011;71592;52.178;4.512;2023-08-12T09:08:43;4.20;;;1.90;;
82030;SDS011;71592;52.178;4.512;2023-08-12T09:11:10;5.95;;;2.13;;
82030;SDS011;71592;52.178;4.512;2023-08-12T09:13:37;5.20;;;2.20;;
82030;SDS011;71592;52.178;4.512;2023-08-12T09:16:03;5.13;;;2.00;;
82030;SDS011;71592;52.178;4.512;2023-08-12T09:18:29;3.70;;;1.70;;
82030;SDS011;71592;52.178;4.512;2023-08-12T09:20:54;4.15;;;1.70;;
82030;SDS011;71592;52.178;4.512;2023-08-12T09:23:20;5.25;;;2.03;;
82030;SDS011;71592;52.178;4.512;2023-08-12T09:25:45;6.10;;;2.00;;
82030;SDS011;71592;52.178;4.512;2023-08-12T09:28:10;3.78;;;1.90;;
82030;SDS011;71592;52.178;4.512;2023-08-12T09:30:36;6.80;;;1.85;;
82030;SDS011;71592;52.178;4.512;2023-08-12T09:33:03;6.68;;;2.10;;
82030;SDS011;71592;52.178;4.512;2023-08-12T09:35:36;6.45;;;2.17;;
82030;SDS011;71592;52.178;4.512;2023-08-12T09:38:02;5.28;;;2.35;;
82030;SDS011;71592;52.178;4.512;2023-08-12T09:40:28;5.78;;;2.20;;
82030;SDS011;71592;52.178;4.512;2023-08-12T09:42:53;7.03;;;2.22;;
82030;SDS011;71592;52.178;4.512;2023-08-12T09:45:22;3.13;;;1.65;;
82030;SDS011;71592;52.178;4.512;2023-08-12T09:47:48;5.68;;;2.10;;
82030;SDS011;71592;52.178;4.512;2023-08-12T09:50:13;6.28;;;2.30;;
82030;SDS011;71592;52.178;4.512;2023-08-12T09:52:39;4.77;;;2.20;;
82030;SDS011;71592;52.178;4.512;2023-08-12T09:55:04;5.53;;;2.60;;
82030;SDS011;71592;52.178;4.512;2023-08-12T09:57:30;6.57;;;2.20;;
82030;SDS011;71592;52.178;4.512;2023-08-12T09:59:58;6.40;;;2.30;;
82030;SDS011;71592;52.178;4.512;2023-08-12T10:02:24;5.50;;;1.95;;
82030;SDS011;71592;52.178;4.512;2023-08-12T10:04:51;5.57;;;1.98;;
82030;SDS011;71592;52.178;4.512;2023-08-12T10:07:18;7.03;;;2.20;;
82030;SDS011;71592;52.178;4.512;2023-08-12T10:09:44;5.18;;;2.22;;
82030;SDS011;71592;52.178;4.512;2023-08-12T10:12:10;7.90;;;2.25;;
82030;SDS011;71592;52.178;4.512;2023-08-12T10:14:36;6.88;;;2.38;;
82030;SDS011;71592;52.178;4.512;2023-08-12T10:17:02;5.45;;;2.30;;
82030;SDS011;71592;52.178;4.512;2023-08-12T10:19:28;6.55;;;2.33;;
82030;SDS011;71592;52.178;4.512;2023-08-12T10:21:54;7.57;;;2.25;;
82030;SDS011;71592;52.178;4.512;2023-08-12T10:24:20;4.70;;;2.20;;
82030;SDS011;71592;52.178;4.512;2023-08-12T10:26:46;6.90;;;2.28;;
82030;SDS011;71592;52.178;4.512;2023-08-12T10:29:11;5.57;;;2.23;;
82030;SDS011;71592;52.178;4.512;2023-08-12T10:31:38;7.97;;;2.40;;
82030;SDS011;71592;52.178;4.512;2023-08-12T10:34:03;7.00;;;2.20;;
82030;SDS011;71592;52.178;4.512;2023-08-12T10:36:28;7.50;;;2.38;;
82030;SDS011;71592;52.178;4.512;2023-08-12T10:38:56;5.93;;;2.33;;
82030;SDS011;71592;52.178;4.512;2023-08-12T10:41:22;8.07;;;2.90;;
82030;SDS011;71592;52.178;4.512;2023-08-12T10:44:01;6.03;;;2.75;;
82030;SDS011;71592;52.178;4.512;2023-08-12T10:46:35;6.18;;;2.70;;
82030;SDS011;71592;52.178;4.512;2023-08-12T10:57:03;6.75;;;2.78;;
82030;SDS011;71592;52.178;4.512;2023-08-12T11:02:07;5.88;;;2.50;;
82030;SDS011;71592;52.178;4.512;2023-08-12T11:04:38;6.72;;;2.70;;
82030;SDS011;71592;52.178;4.512;2023-08-12T11:07:14;7.30;;;2.65;;
82030;SDS011;71592;52.178;4.512;2023-08-12T11:09:39;7.85;;;2.70;;
82030;SDS011;71592;52.178;4.512;2023-08-12T11:12:04;10.40;;;2.53;;
82030;SDS011;71592;52.178;4.512;2023-08-12T11:14:30;6.40;;;2.55;;
82030;SDS011;71592;52.178;4.512;2023-08-12T11:16:55;5.40;;;2.73;;
82030;SDS011;71592;52.178;4.512;2023-08-12T11:19:21;8.48;;;2.60;;
82030;SDS011;71592;52.178;4.512;2023-08-12T11:21:46;7.15;;;2.55;;
82030;SDS011;71592;52.178;4.512;2023-08-12T11:24:12;6.75;;;2.45;;
82030;SDS011;71592;52.178;4.512;2023-08-12T11:26:37;4.83;;;2.27;;
82030;SDS011;71592;52.178;4.512;2023-08-12T11:29:08;7.55;;;3.03;;
82030;SDS011;71592;52.178;4.512;2023-08-12T11:31:33;6.28;;;2.83;;
82030;SDS011;71592;52.178;4.512;2023-08-12T11:33:59;7.82;;;2.80;;
82030;SDS011;71592;52.178;4.512;2023-08-12T11:36:24;8.80;;;2.70;;
82030;SDS011;71592;52.178;4.512;2023-08-12T11:38:49;8.47;;;2.60;;
82030;SDS011;71592;52.178;4.512;2023-08-12T11:41:17;8.33;;;2.50;;
82030;SDS011;71592;52.178;4.512;2023-08-12T11:43:42;6.80;;;2.47;;
82030;SDS011;71592;52.178;4.512;2023-08-12T11:46:08;9.68;;;2.40;;
82030;SDS011;71592;52.178;4.512;2023-08-12T11:48:33;6.27;;;2.30;;
82030;SDS011;71592;52.178;4.512;2023-08-12T11:50:58;6.87;;;2.50;;
82030;SDS011;71592;52.178;4.512;2023-08-12T11:53:24;8.15;;;2.40;;
82030;SDS011;71592;52.178;4.512;2023-08-12T11:55:49;8.53;;;3.13;;
82030;SDS011;71592;52.178;4.512;2023-08-12T11:58:14;8.55;;;2.72;;
82030;SDS011;71592;52.178;4.512;2023-08-12T12:00:44;7.60;;;2.75;;
82030;SDS011;71592;52.178;4.512;2023-08-12T12:03:11;10.40;;;2.70;;
82030;SDS011;71592;52.178;4.512;2023-08-12T12:05:36;9.07;;;2.70;;
82030;SDS011;71592;52.178;4.512;2023-08-12T12:08:01;8.80;;;2.67;;
82030;SDS011;71592;52.178;4.512;2023-08-12T12:10:33;6.80;;;2.75;;
82030;SDS011;71592;52.178;4.512;2023-08-12T12:12:59;9.43;;;2.70;;
82030;SDS011;71592;52.178;4.512;2023-08-12T12:15:24;7.85;;;2.55;;
82030;SDS011;71592;52.178;4.512;2023-08-12T12:17:50;8.67;;;2.47;;
82030;SDS011;71592;52.178;4.512;2023-08-12T12:20:15;11.10;;;2.70;;
82030;SDS011;71592;52.178;4.512;2023-08-12T12:22:42;6.70;;;2.50;;
82030;SDS011;71592;52.178;4.512;2023-08-12T12:25:09;9.35;;;2.97;;
82030;SDS011;71592;52.178;4.512;2023-08-12T12:27:34;8.43;;;2.83;;
82030;SDS011;71592;52.178;4.512;2023-08-12T12:30:00;6.85;;;2.63;;
82030;SDS011;71592;52.178;4.512;2023-08-12T12:32:25;8.98;;;2.83;;
82030;SDS011;71592;52.178;4.512;2023-08-12T12:34:51;5.80;;;2.42;;
82030;SDS011;71592;52.178;4.512;2023-08-12T12:37:17;8.57;;;2.70;;
82030;SDS011;71592;52.178;4.512;2023-08-12T12:39:42;8.98;;;2.40;;
82030;SDS011;71592;52.178;4.512;2023-08-12T12:42:08;4.97;;;2.53;;
82030;SDS011;71592;52.178;4.512;2023-08-12T12:44:33;6.25;;;2.55;;
82030;SDS011;71592;52.178;4.512;2023-08-12T12:46:58;8.73;;;2.67;;
82030;SDS011;71592;52.178;4.512;2023-08-12T12:49:23;8.27;;;2.30;;
82030;SDS011;71592;52.178;4.512;2023-08-12T12:51:52;6.43;;;2.60;;
82030;SDS011;71592;52.178;4.512;2023-08-12T12:54:17;7.03;;;2.60;;
82030;SDS011;71592;52.178;4.512;2023-08-12T12:56:42;6.87;;;2.37;;
82030;SDS011;71592;52.178;4.512;2023-08-12T12:59:07;7.40;;;2.60;;
82030;SDS011;71592;52.178;4.512;2023-08-12T13:01:33;6.57;;;2.63;;
82030;SDS011;71592;52.178;4.512;2023-08-12T13:03:58;5.72;;;2.30;;
82030;SDS011;71592;52.178;4.512;2023-08-12T13:06:23;6.93;;;2.70;;
82030;SDS011;71592;52.178;4.512;2023-08-12T13:08:52;8.20;;;2.70;;
82030;SDS011;71592;52.178;4.512;2023-08-12T13:11:17;5.68;;;2.22;;
82030;SDS011;71592;52.178;4.512;2023-08-12T13:13:42;7.82;;;2.60;;
82030;SDS011;71592;52.178;4.512;2023-08-12T13:16:08;7.05;;;2.35;;
82030;SDS011;71592;52.178;4.512;2023-08-12T13:18:33;8.10;;;2.63;;
82030;SDS011;71592;52.178;4.512;2023-08-12T13:20:59;9.15;;;2.60;;
82030;SDS011;71592;52.178;4.512;2023-08-12T13:23:24;6.83;;;2.47;;
82030;SDS011;71592;52.178;4.512;2023-08-12T13:25:49;7.03;;;2.65;;
82030;SDS011;71592;52.178;4.512;2023-08-12T13:28:15;7.40;;;2.20;;
82030;SDS011;71592;52.178;4.512;2023-08-12T13:30:40;8.10;;;2.77;;
82030;SDS011;71592;52.178;4.512;2023-08-12T13:33:05;8.00;;;2.80;;
82030;SDS011;71592;52.178;4.512;2023-08-12T13:35:31;9.10;;;2.57;;
82030;SDS011;71592;52.178;4.512;2023-08-12T13:37:56;7.97;;;2.88;;
82030;SDS011;71592;52.178;4.512;2023-08-12T13:40:21;8.40;;;2.50;;
82030;SDS011;71592;52.178;4.512;2023-08-12T13:42:46;9.27;;;2.40;;
82030;SDS011;71592;52.178;4.512;2023-08-12T13:45:12;9.27;;;2.60;;
82030;SDS011;71592;52.178;4.512;2023-08-12T13:47:38;9.32;;;2.45;;
82030;SDS011;71592;52.178;4.512;2023-08-12T13:50:03;9.10;;;2.50;;
82030;SDS011;71592;52.178;4.512;2023-08-12T13:52:29;7.47;;;2.28;;
82030;SDS011;71592;52.178;4.512;2023-08-12T13:54:54;9.13;;;2.57;;
82030;SDS011;71592;52.178;4.512;2023-08-12T13:57:19;9.10;;;2.43;;
82030;SDS011;71592;52.178;4.512;2023-08-12T13:59:44;8.63;;;2.42;;
82030;SDS011;71592;52.178;4.512;2023-08-12T14:02:11;12.55;;;2.72;;
82030;SDS011;71592;52.178;4.512;2023-08-12T14:04:36;7.93;;;3.03;;
82030;SDS011;71592;52.178;4.512;2023-08-12T14:07:03;9.35;;;2.92;;
82030;SDS011;71592;52.178;4.512;2023-08-12T14:09:28;7.47;;;2.28;;
82030;SDS011;71592;52.178;4.512;2023-08-12T14:11:53;8.50;;;2.40;;
82030;SDS011;71592;52.178;4.512;2023-08-12T14:14:18;8.10;;;2.27;;
82030;SDS011;71592;52.178;4.512;2023-08-12T14:16:44;5.82;;;2.47;;
82030;SDS011;71592;52.178;4.512;2023-08-12T14:19:09;10.90;;;2.90;;
82030;SDS011;71592;52.178;4.512;2023-08-12T14:21:34;10.87;;;2.67;;
82030;SDS011;71592;52.178;4.512;2023-08-12T14:23:59;8.10;;;3.07;;
82030;SDS011;71592;52.178;4.512;2023-08-12T14:26:25;9.47;;;3.30;;
82030;SDS011;71592;52.178;4.512;2023-08-12T14:28:51;7.25;;;2.70;;
82030;SDS011;71592;52.178;4.512;2023-08-12T14:31:17;6.50;;;2.53;;
82030;SDS011;71592;52.178;4.512;2023-08-12T14:33:42;8.70;;;2.65;;
82030;SDS011;71592;52.178;4.512;2023-08-12T14:36:08;9.15;;;2.78;;
82030;SDS011;71592;52.178;4.512;2023-08-12T14:38:33;6.87;;;2.60;;
82030;SDS011;71592;52.178;4.512;2023-08-12T14:40:59;6.65;;;2.97;;
82030;SDS011;71592;52.178;4.512;2023-08-12T14:43:24;6.10;;;2.47;;
82030;SDS011;71592;52.178;4.512;2023-08-12T14:45:49;9.80;;;2.88;;